Ashford, Alabama
Current Conditions -  °F | °C
As of 7:53 AM on Saturday 25 Oct 2014 (Local Time) from KDHN Reporting Station
Clear Clear  
Wind Chill: 51°   Ceiling: Unl
Heat Index: 51°   Visibility: 10mi
Dew Point: 45°   Wind: 7mph
Humidity: 80%   Direction: 340°NNW
Pressure: 30.11"   Gusts: NA
Location:  31.18°N, 85.24°W
Report Text: KDHN 251253Z AUTO 34006KT 10SM CLR 11/07 A3011 RMK AO2 SLP193 T01060072
Loading
Personal Weather Stations






























Interactive Weather Map
Tropical Storm Tracking
New forecast layout! Learn more

10-Day Weather Forecast

Advertisements
Track Severe Weather on mobile